• Join FlightAware (Why Join?)
  • Login
  • US Flag 
08:31PM EST


 

Airport Tracker/Info


-or-


 

Live Flight TrackerFlight Track Log ✈ THY2454 ✈ 06-Sep-2013 ✈ LTBA / IST - LTAF / ADA

Flight Track Log - Related Links

Times and Time Zones

All times are in EDT time to prevent confusion due to time zone crossing. See the THY2454 flight status page for this flight to view local times or setup timezone preferences in your user account.

Time Position Orientation Groundspeed Altitude Reporting Facility
EDT Latitude Longitude Course Direction KTS MPH feet Rate Location/Type
11:25PM 40.4972 29.6700 126° Southeast  Level Estimated
11:26PM 40.4282 29.7903 127° Southeast  Level Estimated
11:27PM 40.3590 29.9104 127° Southeast  Level Estimated
11:28PM 40.2897 30.0301 127° Southeast  Level Estimated
11:29PM 40.2203 30.1497 127° Southeast  Level Estimated
11:30PM 40.1508 30.2690 127° Southeast  Level Estimated
11:31PM 40.0812 30.3880 127° Southeast  Level Estimated
11:32PM 40.0114 30.5068 127° Southeast  Level Estimated
11:33PM 39.9415 30.6254 128° Southeast  Level Estimated
11:34PM 39.8715 30.7437 128° Southeast  Level Estimated
11:35PM 39.8014 30.8618 128° Southeast  Level Estimated
11:36PM 39.7311 30.9797 128° Southeast  Level Estimated
11:37PM 39.6608 31.0972 128° Southeast  Level Estimated
11:38PM 39.5903 31.2146 128° Southeast  Level Estimated
11:39PM 39.5197 31.3317 128° Southeast  Level Estimated
11:40PM 39.4490 31.4486 128° Southeast  Level Estimated
11:41PM 39.3781 31.5653 128° Southeast  Level Estimated
11:42PM 39.3072 31.6817 128° Southeast  Level Estimated
11:43PM 39.2361 31.7979 128° Southeast  Level Estimated
11:44PM 39.1649 31.9138 128° Southeast  Level Estimated
11:45PM 39.0936 32.0295 128° Southeast  Level Estimated
11:46PM 39.0222 32.1450 128° Southeast  Level Estimated
11:47PM 38.9507 32.2602 129° Southeast  Level Estimated
11:48PM 38.8790 32.3752 129° Southeast  Level Estimated
11:49PM 38.8073 32.4900 129° Southeast  Level Estimated
11:50PM 38.7354 32.6045 129° Southeast  Level Estimated
11:51PM 38.6634 32.7188 129° Southeast  Level Estimated
11:52PM 38.5913 32.8329 129° Southeast  Level Estimated
11:53PM 38.5191 32.9468 129° Southeast  Level Estimated
11:54PM 38.4468 33.0604 129° Southeast  Level Estimated
11:55PM 38.3744 33.1738 129° Southeast  Level Estimated
11:56PM 38.3019 33.2870 129° Southeast  Level Estimated
11:57PM 38.2292 33.3999 129° Southeast  Level Estimated
11:58PM 38.1565 33.5126 129° Southeast  Level Estimated
11:59PM 38.0836 33.6251 129° Southeast  Level Estimated
12:00AM 38.0107 33.7374 129° Southeast  Level Estimated
12:01AM 37.9376 33.8494 130° Southeast  Level Estimated
12:02AM 37.8644 33.9613 130° Southeast  Level Estimated
12:04AM 37.6725 34.2528 130° Southeast  Level Estimated
12:06AM 37.5707 34.4064 130° Southeast  Level Estimated
12:07AM 37.4970 34.5171 130° Southeast  Level Estimated
12:08AM 37.4232 34.6276 130° Southeast  Level Estimated
12:09AM 37.3493 34.7379 130° Southeast  Level Estimated
12:10AM 37.2753 34.8479 130° Southeast  Level Estimated
12:11AM 37.2012 34.9578 130° Southeast  Level Estimated
12:12AM 37.1270 35.0674 130° Southeast  Level Estimated
12:13AM 37.0527 35.1768 130° Southeast  Level Estimated
12:14AM 36.9822 35.2804 130° Southeast  Level Estimated
12:15AM 36.9822 35.2804 202° Southwest  Level Estimated
12:16AM 36.9822 35.2804 202° Southwest  Level Estimated
12:17AM 36.9822 35.2804 202° Southwest  Level Estimated
12:18AM 36.9822 35.2804 202° Southwest  Level Estimated
12:19AM 36.9822 35.2804 202° Southwest  Level Estimated
12:20AM 36.9822 35.2804 202° Southwest  Level Estimated
12:21AM 36.9822 35.2804 202° Southwest  Level Estimated
12:22AM 36.9822 35.2804 202° Southwest  Level Estimated
12:23AM 36.9822 35.2804 202° Southwest  Level Estimated
12:24AM 36.9822 35.2804 202° Southwest  Level Estimated
12:25AM 36.9822 35.2804 202° Southwest  Level Estimated
12:26AM 36.9822 35.2804 202° Southwest  Level Estimated
12:27AM 36.9822 35.2804 202° Southwest  Level Estimated
12:28AM 36.9822 35.2804 202° Southwest  Level Estimated
12:29AM 36.9822 35.2804 202° Southwest  Level Estimated
12:30AM 36.9822 35.2804 202° Southwest  Level Estimated